Time;durP1;ratioP1;P1;durP2;ratioP2;P2;SDS_P1;SDS_P2;PMS_P1;PMS_P2;Temp;Humidity;BMP_temperature;BMP_pressure;BME280_temperature;BME280_humidity;BME280_pressure;Samples;Min_cycle;Max_cycle;Signal;HPM_P1;HPM_P2
2022/01/07 00:00:20;;;;;;;18.00;9.75;;;;;;;-2.27;76.54;101312.73;1796066;79;21058;-82
2022/01/07 00:02:55;;;;;;;17.12;8.15;;;;;;;-2.22;76.50;101317.91;1796103;78;21051;-84
2022/01/07 00:05:22;;;;;;;17.55;9.78;;;;;;;-2.19;76.55;101312.63;1780644;78;21058;-84
2022/01/07 00:07:49;;;;;;;13.22;6.08;;;;;;;-2.18;76.55;101309.64;1796396;78;21097;-84
2022/01/07 00:10:17;;;;;;;13.55;5.70;;;;;;;-2.16;76.59;101309.03;1796206;79;21030;-83
2022/01/07 00:12:43;;;;;;;8.48;4.25;;;;;;;-2.15;76.49;101312.10;1796276;79;21034;-84
2022/01/07 00:15:13;;;;;;;11.45;4.92;;;;;;;-2.14;76.54;101302.68;1796181;79;22212;-84
2022/01/07 00:17:39;;;;;;;7.62;4.65;;;;;;;-2.15;76.52;101303.47;1795498;79;21051;-83
2022/01/07 00:20:12;;;;;;;8.68;5.08;;;;;;;-2.15;76.49;101312.10;1795608;78;21086;-83
2022/01/07 00:22:40;;;;;;;9.80;5.75;;;;;;;-2.17;76.49;101317.52;1794252;79;21026;-83
2022/01/07 00:25:08;;;;;;;12.07;7.15;;;;;;;-2.22;76.45;101317.51;1796101;78;22301;-83
2022/01/07 00:27:35;;;;;;;38.00;20.60;;;;;;;-2.24;76.50;101315.59;1795585;79;21749;-82
2022/01/07 00:30:02;;;;;;;28.52;16.67;;;;;;;-2.26;76.55;101323.19;1795688;79;21062;-83
2022/01/07 00:32:28;;;;;;;12.28;5.83;;;;;;;-2.27;76.54;101321.39;1796004;78;21066;-83
2022/01/07 00:34:55;;;;;;;12.90;5.75;;;;;;;-2.30;76.52;101321.13;1796150;79;21066;-84
2022/01/07 00:37:22;;;;;;;11.78;6.33;;;;;;;-2.33;76.54;101327.30;1796199;79;21069;-84
2022/01/07 00:39:49;;;;;;;10.63;5.35;;;;;;;-2.33;76.58;101328.58;1787132;79;22492;-84
2022/01/07 00:42:16;;;;;;;8.58;4.85;;;;;;;-2.37;76.55;101321.36;1786822;78;21631;-84
2022/01/07 00:44:43;;;;;;;9.33;4.00;;;;;;;-2.38;76.62;101321.76;1787252;78;21046;-84
2022/01/07 00:47:09;;;;;;;8.68;4.87;;;;;;;-2.38;76.67;101317.00;1786963;78;21035;-84
2022/01/07 00:49:36;;;;;;;9.03;4.80;;;;;;;-2.37;76.68;101320.97;1787227;79;21098;-84
2022/01/07 00:52:03;;;;;;;11.53;4.17;;;;;;;-2.39;76.69;101324.20;1787037;78;21766;-84
2022/01/07 00:54:30;;;;;;;8.70;4.22;;;;;;;-2.41;76.73;101322.77;1787045;80;21066;-84
2022/01/07 00:56:57;;;;;;;11.18;4.15;;;;;;;-2.39;76.81;101319.05;1787287;80;21990;-84
2022/01/07 00:59:23;;;;;;;9.85;4.62;;;;;;;-2.42;76.78;101318.41;1787085;80;21093;-84
2022/01/07 01:01:50;;;;;;;7.50;3.67;;;;;;;-2.45;76.78;101316.84;1787283;78;21081;-84
2022/01/07 01:04:18;;;;;;;13.30;4.37;;;;;;;-2.45;76.85;101323.68;1787427;78;23119;-84
2022/01/07 01:06:45;;;;;;;8.40;3.72;;;;;;;-2.46;76.89;101315.05;1787435;80;21015;-85
2022/01/07 01:09:12;;;;;;;9.48;4.67;;;;;;;-2.46;76.94;101314.13;1787721;80;21118;-84
2022/01/07 01:11:39;;;;;;;10.38;3.95;;;;;;;-2.46;76.95;101311.55;1787623;79;21003;-85
2022/01/07 01:14:06;;;;;;;8.33;3.47;;;;;;;-2.48;76.99;101315.67;1787761;80;21990;-85
2022/01/07 01:16:33;;;;;;;9.15;3.80;;;;;;;-2.51;77.00;101311.56;1787816;80;21728;-85
2022/01/07 01:18:59;;;;;;;10.15;4.15;;;;;;;-2.53;77.06;101307.56;1787842;80;21540;-85
2022/01/07 01:21:26;;;;;;;9.25;3.83;;;;;;;-2.55;77.11;101306.53;1787653;80;21043;-85
2022/01/07 01:23:53;;;;;;;11.12;3.95;;;;;;;-2.58;77.13;101301.99;1787736;78;21560;-85
2022/01/07 01:26:19;;;;;;;15.32;4.83;;;;;;;-2.59;77.18;101301.85;1787830;80;21082;-85
2022/01/07 01:28:46;;;;;;;10.10;3.62;;;;;;;-2.60;77.18;101306.51;1787565;79;21840;-85
2022/01/07 01:31:15;;;;;;;9.05;3.33;;;;;;;-2.63;77.23;101292.98;1787559;80;21027;-85
2022/01/07 01:33:43;;;;;;;8.48;4.37;;;;;;;-2.63;77.28;101299.79;1787321;80;21054;-84
2022/01/07 01:36:10;;;;;;;14.18;3.92;;;;;;;-2.67;77.32;101290.89;1787340;79;21122;-84
2022/01/07 01:38:37;;;;;;;11.25;3.80;;;;;;;-2.67;77.37;101296.04;1767274;80;21054;-83
2022/01/07 01:41:06;;;;;;;16.42;5.00;;;;;;;-2.67;77.44;101290.89;1786928;79;21038;-83
2022/01/07 01:43:33;;;;;;;11.78;3.85;;;;;;;-2.70;77.43;101293.22;1767243;80;21758;-83
2022/01/07 01:46:01;;;;;;;15.45;4.92;;;;;;;-2.71;77.49;101292.69;1787428;80;21026;-83
2022/01/07 01:48:28;;;;;;;10.90;4.22;;;;;;;-2.72;77.53;101284.81;1787349;79;21043;-83
2022/01/07 01:50:57;;;;;;;12.65;4.08;;;;;;;-2.74;77.59;101289.83;1787347;80;21544;-82
2022/01/07 01:53:27;;;;;;;12.55;4.12;;;;;;;-2.77;77.53;101286.62;1787078;80;21828;-83
2022/01/07 01:55:54;;;;;;;11.53;3.85;;;;;;;-2.80;77.59;101288.92;1787305;79;21047;-84
2022/01/07 01:58:21;;;;;;;10.08;4.40;;;;;;;-2.83;77.60;101280.94;1787106;79;21544;-84
2022/01/07 02:00:47;;;;;;;11.48;4.60;;;;;;;-2.83;77.64;101279.66;1787303;79;22324;-83
2022/01/07 02:03:17;;;;;;;11.97;3.72;;;;;;;-2.85;77.62;101280.27;1787253;79;21151;-84
2022/01/07 02:05:47;;;;;;;10.08;4.03;;;;;;;-2.88;77.58;101280.92;1767005;80;20984;-84
2022/01/07 02:08:14;;;;;;;11.15;4.35;;;;;;;-2.89;77.60;101278.20;1787347;78;21058;-84
2022/01/07 02:10:41;;;;;;;10.98;3.55;;;;;;;-2.90;77.63;101278.59;1787377;79;21526;-84
2022/01/07 02:13:07;;;;;;;8.75;3.25;;;;;;;-2.93;77.56;101279.61;1787203;80;21109;-83
2022/01/07 02:15:34;;;;;;;9.83;3.35;;;;;;;-2.96;77.63;101284.12;1787192;80;21335;-84
2022/01/07 02:18:01;;;;;;;13.15;3.50;;;;;;;-2.97;77.67;101271.99;1787231;78;21741;-85
2022/01/07 02:20:31;;;;;;;9.68;3.47;;;;;;;-2.95;77.72;101274.71;1787160;80;22278;-84
2022/01/07 02:22:58;;;;;;;9.83;3.47;;;;;;;-2.97;77.75;101268.13;1787548;79;21043;-84
2022/01/07 02:25:25;;;;;;;8.88;3.17;;;;;;;-2.95;77.76;101267.91;1787335;80;21097;-85
2022/01/07 02:27:52;;;;;;;9.65;3.95;;;;;;;-2.94;77.84;101267.13;1787127;78;21062;-85
2022/01/07 02:30:23;;;;;;;8.23;3.20;;;;;;;-2.93;77.76;101271.88;1787475;79;23092;-85
2022/01/07 02:32:49;;;;;;;12.07;2.95;;;;;;;-2.92;77.82;101267.66;1787277;79;21046;-84
2022/01/07 02:35:21;;;;;;;6.15;2.77;;;;;;;-2.91;77.85;101266.47;1787168;78;21031;-83
2022/01/07 02:37:46;;;;;;;6.25;2.45;;;;;;;-2.90;77.83;101261.85;1786498;79;21046;-82
2022/01/07 02:40:13;;;;;;;8.33;2.47;;;;;;;-2.89;77.83;101273.98;1792140;79;21577;-83
2022/01/07 02:42:40;;;;;;;10.65;3.08;;;;;;;-2.87;77.85;101272.80;1792825;79;21940;-83
2022/01/07 02:45:11;;;;;;;7.30;2.90;;;;;;;-2.88;77.78;101278.73;1793112;78;21042;-83
2022/01/07 02:48:02;;;;;;;9.03;2.50;;;;;;;-2.89;77.68;101282.06;1793145;79;21453;-83
2022/01/07 02:50:33;;;;;;;12.70;3.12;;;;;;;-2.92;77.67;101279.25;1790938;79;21130;-83
2022/01/07 02:53:00;;;;;;;7.75;2.60;;;;;;;-2.97;77.55;101277.54;1793177;79;21066;-83
2022/01/07 02:55:27;;;;;;;8.38;2.95;;;;;;;-3.01;77.68;101267.74;1793118;78;21780;-83
2022/01/07 02:57:54;;;;;;;7.85;3.25;;;;;;;-3.01;77.70;101276.37;1792985;80;21536;-83
2022/01/07 03:00:21;;;;;;;7.75;3.60;;;;;;;-3.02;77.77;101274.94;1793213;80;21114;-83
2022/01/07 03:02:48;;;;;;;7.35;3.45;;;;;;;-3.01;77.89;101276.37;1792849;80;21042;-83
2022/01/07 03:05:16;;;;;;;14.83;3.40;;;;;;;-3.00;77.90;101270.46;1792951;79;21042;-83
2022/01/07 03:07:42;;;;;;;10.15;4.33;;;;;;;-2.96;77.95;101262.62;1792994;78;21783;-82
2022/01/07 03:10:09;;;;;;;11.78;4.95;;;;;;;-2.96;77.95;101262.22;1792697;80;21045;-82
2022/01/07 03:12:37;;;;;;;12.78;5.12;;;;;;;-2.96;77.93;101256.18;1792913;79;21065;-83
2022/01/07 03:15:05;;;;;;;10.13;3.60;;;;;;;-2.95;77.92;101257.61;1793110;78;21054;-82
2022/01/07 03:17:32;;;;;;;9.48;3.95;;;;;;;-2.94;77.94;101250.37;1793239;78;21306;-82
2022/01/07 03:19:58;;;;;;;9.83;4.05;;;;;;;-2.92;77.94;101251.80;1793107;79;21869;-82
2022/01/07 03:22:25;;;;;;;14.35;4.72;;;;;;;-2.91;77.89;101244.97;1792879;78;21034;-83
2022/01/07 03:24:52;;;;;;;10.98;4.70;;;;;;;-2.91;77.92;101242.00;1793201;80;21034;-84
2022/01/07 03:27:18;;;;;;;11.95;4.95;;;;;;;-2.88;77.95;101242.67;1793258;80;21035;-83
2022/01/07 03:29:45;;;;;;;9.18;4.75;;;;;;;-2.88;77.92;101242.67;1793217;78;22084;-84
2022/01/07 03:32:12;;;;;;;11.33;4.53;;;;;;;-2.87;77.96;101249.25;1793359;80;21795;-84
2022/01/07 03:34:38;;;;;;;14.05;4.03;;;;;;;-2.86;77.93;101247.17;1793276;78;21057;-83
2022/01/07 03:37:05;;;;;;;10.10;4.53;;;;;;;-2.83;77.97;101251.71;1793253;80;21520;-84
2022/01/07 03:39:32;;;;;;;11.63;5.42;;;;;;;-2.82;77.92;101247.95;1789927;78;21046;-85
2022/01/07 03:41:59;;;;;;;15.70;6.03;;;;;;;-2.81;77.94;101244.62;1786935;78;21018;-84
2022/01/07 03:44:25;;;;;;;11.97;5.83;;;;;;;-2.80;77.94;101250.66;1787168;80;21752;-84
2022/01/07 03:46:52;;;;;;;21.15;7.67;;;;;;;-2.81;77.93;101244.62;1787052;78;21046;-83
2022/01/07 03:49:18;;;;;;;28.35;10.08;;;;;;;-2.81;77.94;101241.15;1787084;79;21026;-83
2022/01/07 03:51:45;;;;;;;32.48;11.22;;;;;;;-2.79;78.09;101241.78;1787124;79;21536;-84
2022/01/07 03:54:12;;;;;;;27.37;11.00;;;;;;;-2.79;78.07;101243.47;1787064;79;21052;-83
2022/01/07 03:56:39;;;;;;;19.85;8.58;;;;;;;-2.82;78.13;101235.06;1787254;79;21744;-84
2022/01/07 03:59:08;;;;;;;40.65;15.28;;;;;;;-2.81;78.21;101228.27;1787198;80;21034;-84
2022/01/07 04:01:34;;;;;;;40.65;16.20;;;;;;;-2.83;78.23;101235.86;1786645;78;21066;-85
2022/01/07 04:04:01;;;;;;;36.08;14.15;;;;;;;-2.84;78.37;101238.30;1773060;80;21067;-84
2022/01/07 04:06:28;;;;;;;33.40;12.63;;;;;;;-2.87;78.41;101240.23;1773117;80;21063;-83
2022/01/07 04:08:55;;;;;;;24.92;10.30;;;;;;;-2.88;78.58;101238.41;1772835;80;21682;-83
2022/01/07 04:11:21;;;;;;;29.35;11.55;;;;;;;-2.85;78.71;101235.19;1772719;80;21083;-83
2022/01/07 04:13:48;;;;;;;31.62;12.88;;;;;;;-2.85;78.75;101227.46;1772937;80;21054;-83
2022/01/07 04:16:14;;;;;;;59.60;19.70;;;;;;;-2.85;78.82;101230.03;1772817;80;21059;-83
2022/01/07 04:18:41;;;;;;;55.88;19.60;;;;;;;-2.85;78.83;101223.59;1772765;80;21406;-83
2022/01/07 04:21:08;;;;;;;64.40;25.48;;;;;;;-2.84;78.86;101230.56;1772768;80;21179;-83
2022/01/07 04:23:35;;;;;;;65.22;25.02;;;;;;;-2.87;78.90;101226.43;1772564;80;21042;-83
2022/01/07 04:26:01;;;;;;;88.82;31.85;;;;;;;-2.89;78.92;101221.53;1772749;80;21150;-83
2022/01/07 04:28:28;;;;;;;39.63;18.42;;;;;;;-2.92;78.98;101222.19;1772894;80;21564;-83
2022/01/07 04:30:54;;;;;;;353.48;158.27;;;;;;;-2.93;79.04;101226.80;1773054;80;21023;-82
2022/01/07 04:33:22;;;;;;;232.70;161.10;;;;;;;-2.95;79.08;101230.56;1772942;80;22645;-82
2022/01/07 04:35:48;;;;;;;117.97;57.08;;;;;;;-3.04;79.14;101211.73;1772776;80;21529;-82
2022/01/07 04:38:15;;;;;;;98.58;49.10;;;;;;;-2.94;79.20;101230.16;1773001;80;21071;-83
2022/01/07 04:40:42;;;;;;;40.33;20.80;;;;;;;-2.92;79.32;101229.02;1772468;80;21020;-82
2022/01/07 04:43:09;;;;;;;52.67;33.10;;;;;;;-2.92;79.31;101228.62;1744199;80;21050;-82
2022/01/07 04:45:35;;;;;;;99.37;59.85;;;;;;;-2.90;79.37;101223.22;1772714;80;22578;-82
2022/01/07 04:48:03;;;;;;;45.92;27.85;;;;;;;-2.83;79.57;101224.66;1772763;80;21730;-82
2022/01/07 04:50:29;;;;;;;29.67;19.35;;;;;;;-2.73;79.81;101223.37;1772912;80;21059;-82
2022/01/07 04:52:56;;;;;;;36.83;24.90;;;;;;;-2.59;80.02;101213.87;1772870;80;21096;-82
2022/01/07 04:55:25;;;;;;;59.77;38.90;;;;;;;-2.44;80.12;101214.62;1772834;80;21059;-82
2022/01/07 04:57:54;;;;;;;145.02;84.30;;;;;;;-2.33;80.02;101217.71;1772418;80;21074;-83
2022/01/07 05:00:22;;;;;;;81.47;49.98;;;;;;;-2.28;79.86;101214.25;1767897;80;21059;-83
2022/01/07 05:02:52;;;;;;;99.17;59.93;;;;;;;-2.25;79.75;101212.83;1745252;82;21222;-83
2022/01/07 05:05:18;;;;;;;63.73;40.17;;;;;;;-2.20;79.72;101206.75;1745383;81;21595;-83
2022/01/07 05:07:45;;;;;;;44.15;28.25;;;;;;;-2.18;79.66;101202.26;1745408;82;21527;-83
2022/01/07 05:10:15;;;;;;;53.20;31.75;;;;;;;-2.12;79.63;101207.38;1745235;82;22159;-85
2022/01/07 05:12:42;;;;;;;41.90;27.35;;;;;;;-2.06;79.67;101211.78;1745222;80;21708;-83
2022/01/07 05:15:12;;;;;;;35.43;21.73;;;;;;;-1.96;79.77;101206.20;1745003;81;21037;-83
2022/01/07 05:17:39;;;;;;;39.75;22.95;;;;;;;-1.92;79.75;101193.16;1745291;82;21395;-83
2022/01/07 05:20:10;;;;;;;37.00;22.80;;;;;;;-1.77;79.64;101207.70;1745328;82;21034;-90
2022/01/07 05:22:37;;;;;;;35.13;22.13;;;;;;;-1.71;79.43;101204.72;1746137;81;22549;-90
2022/01/07 05:25:09;;;;;;;22.45;13.25;;;;;;;-1.77;79.30;101187.06;1746452;82;21041;-87
2022/01/07 05:27:34;;;;;;;25.48;16.10;;;;;;;-1.68;79.17;101194.27;1745743;80;21081;-88
2022/01/07 05:30:01;;;;;;;24.23;14.28;;;;;;;-1.67;78.99;101193.50;1746226;82;21034;-89
2022/01/07 05:32:30;;;;;;;39.63;22.95;;;;;;;-1.70;78.83;101198.80;1715471;82;21073;-89
2022/01/07 05:35:01;;;;;;;40.00;21.35;;;;;;;-1.66;79.00;101196.58;1745349;82;21061;-89
2022/01/07 05:37:27;;;;;;;38.63;19.75;;;;;;;-1.58;79.04;101195.90;1733190;82;21077;-88
2022/01/07 05:39:56;;;;;;;33.95;19.40;;;;;;;-1.53;78.97;101197.18;1745333;80;21041;-83
2022/01/07 05:42:22;;;;;;;24.10;13.88;;;;;;;-1.47;78.91;101190.31;1745274;80;21022;-83
2022/01/07 05:44:50;;;;;;;42.30;24.52;;;;;;;-1.42;78.86;101205.80;1714951;82;21053;-84
2022/01/07 05:47:17;;;;;;;46.98;27.40;;;;;;;-1.39;78.78;101205.66;1782124;80;21945;-85
2022/01/07 05:49:44;;;;;;;58.52;33.28;;;;;;;-1.37;78.67;101201.88;1786932;78;21599;-81
2022/01/07 05:52:11;;;;;;;32.03;14.47;;;;;;;-1.41;78.45;101199.83;1786465;80;21065;-79
2022/01/07 05:54:37;;;;;;;36.90;20.80;;;;;;;-1.47;78.38;101200.64;1785948;80;21073;-81
2022/01/07 05:57:06;;;;;;;21.52;11.43;;;;;;;-1.50;78.30;101200.02;1786146;78;22282;-80
2022/01/07 05:59:32;;;;;;;27.37;13.48;;;;;;;-1.55;78.18;101201.72;1786156;80;21791;-88
2022/01/07 06:01:59;;;;;;;36.10;20.62;;;;;;;-1.61;78.12;101200.84;1788273;80;21019;-88
2022/01/07 06:04:26;;;;;;;39.70;20.23;;;;;;;-1.65;78.10;101200.05;1788032;80;21062;-86
2022/01/07 06:06:53;;;;;;;34.35;20.55;;;;;;;-1.68;78.12;101197.23;1787919;79;21101;-86
2022/01/07 06:09:19;;;;;;;41.13;22.80;;;;;;;-1.72;78.07;101198.67;1788013;78;21164;-86
2022/01/07 06:11:46;;;;;;;46.53;24.57;;;;;;;-1.74;78.05;101213.53;1788123;80;21787;-85
2022/01/07 06:14:13;;;;;;;27.90;12.80;;;;;;;-1.82;77.98;101209.92;1788100;80;21627;-86
2022/01/07 06:16:45;;;;;;;28.50;15.08;;;;;;;-1.86;77.97;101206.95;1788257;80;21500;-86
2022/01/07 06:19:11;;;;;;;25.68;11.55;;;;;;;-1.91;77.94;101204.02;1788193;80;21047;-87
2022/01/07 06:21:38;;;;;;;28.55;14.20;;;;;;;-1.97;77.92;101196.67;1788463;80;21098;-86
2022/01/07 06:24:08;;;;;;;22.13;11.15;;;;;;;-2.03;77.95;101200.02;1788655;80;21787;-87
2022/01/07 06:26:38;;;;;;;24.65;13.70;;;;;;;-2.06;78.00;101206.23;1767889;80;21042;-86
2022/01/07 06:29:05;;;;;;;36.60;20.27;;;;;;;-2.09;78.06;101199.52;1788327;79;21027;-87
2022/01/07 06:31:37;;;;;;;31.55;17.37;;;;;;;-2.11;78.10;101201.47;1788675;80;21047;-88
2022/01/07 06:34:03;;;;;;;34.83;18.40;;;;;;;-2.10;78.19;101200.31;1788774;80;21022;-87
2022/01/07 06:36:32;;;;;;;37.25;17.75;;;;;;;-2.07;78.31;101204.41;1788637;79;21744;-86
2022/01/07 06:38:59;;;;;;;40.52;20.17;;;;;;;-2.05;78.30;101203.25;1788024;80;21015;-86
2022/01/07 06:41:26;;;;;;;52.73;27.67;;;;;;;-2.03;78.37;101205.57;1788318;78;20991;-87
2022/01/07 06:43:53;;;;;;;75.25;37.15;;;;;;;-2.01;78.35;101202.72;1788573;80;21039;-87
2022/01/07 06:46:20;;;;;;;38.98;17.95;;;;;;;-1.98;78.43;101216.78;1788724;80;21045;-87
2022/01/07 06:48:46;;;;;;;37.88;21.82;;;;;;;-1.95;78.47;101217.44;1788990;79;21918;-87
2022/01/07 06:51:15;;;;;;;34.45;19.15;;;;;;;-1.90;78.50;101216.12;1788841;79;21008;-87
2022/01/07 06:53:41;;;;;;;47.30;24.40;;;;;;;-1.87;78.42;101214.20;1788626;79;21022;-86
2022/01/07 06:56:08;;;;;;;40.45;20.97;;;;;;;-1.84;78.51;101207.61;1788542;80;21043;-86
2022/01/07 06:58:35;;;;;;;33.20;17.55;;;;;;;-1.84;78.52;101202.81;1788571;80;21035;-85
2022/01/07 07:01:06;;;;;;;41.45;21.95;;;;;;;-1.78;78.53;101215.84;1788344;80;21732;-87
2022/01/07 07:03:34;;;;;;;38.55;20.45;;;;;;;-1.73;78.61;101222.66;1788302;80;21529;-86
2022/01/07 07:06:03;;;;;;;34.55;18.52;;;;;;;-1.69;78.63;101211.83;1787996;80;21062;-87
2022/01/07 07:08:32;;;;;;;50.55;26.68;;;;;;;-1.65;78.63;101212.59;1787909;79;21043;-86
2022/01/07 07:10:58;;;;;;;35.75;20.32;;;;;;;-1.60;78.67;101202.63;1788248;80;21110;-86
2022/01/07 07:13:25;;;;;;;42.95;23.18;;;;;;;-1.57;78.67;101208.94;1788549;80;21792;-87
2022/01/07 07:15:56;;;;;;;49.42;26.90;;;;;;;-1.51;78.73;101204.66;1788051;80;21549;-88
2022/01/07 07:18:22;;;;;;;46.95;24.80;;;;;;;-1.46;78.77;101202.46;1767879;80;21567;-87
2022/01/07 07:20:49;;;;;;;42.30;22.13;;;;;;;-1.42;78.80;101196.36;1788142;78;21062;-92
2022/01/07 07:23:20;;;;;;;52.90;28.17;;;;;;;-1.42;78.89;101191.19;1786892;79;21472;-93
2022/01/07 07:25:49;;;;;;;43.98;23.77;;;;;;;-1.25;78.90;101209.32;1788928;80;21699;-94
2022/01/07 07:28:23;;;;;;;66.30;33.02;;;;;;;-1.15;78.94;101205.78;1788883;79;20983;-93
2022/01/07 07:30:45;;;;;;;86.75;44.55;;;;;;;-1.06;78.92;101204.33;1787072;80;21015;-94
2022/01/07 07:38:45;;;;;;;54.23;27.93;;;;;;;-0.84;78.91;101201.74;1786493;80;21109;-80
2022/01/07 07:41:15;;;;;;;66.12;32.85;;;;;;;-0.75;78.98;101197.29;1790068;79;21054;-85
2022/01/07 07:43:44;;;;;;;53.05;28.02;;;;;;;-0.67;78.89;101204.34;1792093;78;21217;-88
2022/01/07 07:46:11;;;;;;;44.75;25.10;;;;;;;-0.58;78.95;101199.87;1791578;78;21129;-89
2022/01/07 07:48:38;;;;;;;51.75;26.25;;;;;;;-0.51;78.85;101197.35;1792757;79;21576;-89
2022/01/07 07:51:05;;;;;;;47.00;25.00;;;;;;;-0.45;78.81;101201.32;1792920;79;21745;-87
2022/01/07 07:53:35;;;;;;;67.10;31.00;;;;;;;-0.38;78.79;101193.62;1792867;80;21074;-87
2022/01/07 07:56:01;;;;;;;45.78;24.75;;;;;;;-0.33;78.75;101196.17;1792950;78;21046;-83
2022/01/07 07:58:32;;;;;;;57.50;29.52;;;;;;;-0.27;78.70;101200.50;1793010;80;21258;-85
2022/01/07 08:00:57;;;;;;;40.80;23.60;;;;;;;-0.21;78.67;101202.65;1791966;80;21524;-83
2022/01/07 08:03:28;;;;;;;44.60;25.70;;;;;;;-0.15;78.55;101203.50;1792678;79;22572;-83
2022/01/07 08:05:56;;;;;;;39.80;23.83;;;;;;;-0.13;78.43;101203.22;1791014;79;21066;-83
2022/01/07 08:08:26;;;;;;;60.40;32.90;;;;;;;-0.14;78.33;101206.62;1792638;80;21085;-84
2022/01/07 08:10:56;;;;;;;67.20;33.78;;;;;;;-0.24;78.30;101185.23;1792836;79;21045;-84
2022/01/07 08:15:58;;;;;;;73.12;37.00;;;;;;;-0.04;78.45;101206.50;1792624;79;21077;-83
2022/01/07 08:16:06;;;;;;;59.18;29.72;;;;;;;0.02;78.45;101206.98;1776538;80;21684;-84
2022/01/07 08:18:36;;;;;;;81.70;44.48;;;;;;;0.05;78.37;101202.02;1800961;78;21069;-83
2022/01/07 08:21:07;;;;;;;59.45;30.57;;;;;;;0.12;78.37;101200.80;1793006;80;21046;-85
2022/01/07 08:23:39;;;;;;;47.43;25.00;;;;;;;0.16;78.25;101202.81;1774458;78;21086;-84
2022/01/07 08:26:09;;;;;;;90.35;47.08;;;;;;;0.16;78.17;101193.76;1770940;79;21116;-84
2022/01/07 08:28:42;;;;;;;80.20;41.18;;;;;;;0.17;78.15;101195.17;1824110;78;21700;-83
2022/01/07 08:36:24;;;;;;;45.03;22.90;;;;;;;0.24;78.18;101189.14;1791036;78;21152;-83
2022/01/07 08:38:55;;;;;;;46.65;24.55;;;;;;;0.28;78.12;101198.92;1789427;79;21041;-84
2022/01/07 08:41:24;;;;;;;37.08;19.67;;;;;;;0.30;78.08;101194.76;1791674;79;21878;-83
2022/01/07 08:43:57;;;;;;;40.67;21.40;;;;;;;0.33;78.09;101195.89;1788956;80;22139;-83
2022/01/07 08:46:19;;;;;;;36.05;19.55;;;;;;;0.37;78.08;101192.72;1788997;78;21236;-83
2022/01/07 08:48:45;;;;;;;35.80;18.48;;;;;;;0.43;78.09;101191.38;1792832;78;21062;-83
2022/01/07 08:51:16;;;;;;;35.35;20.65;;;;;;;0.46;78.12;101187.32;1795708;78;21045;-83
2022/01/07 08:53:41;;;;;;;32.23;17.07;;;;;;;0.51;78.04;101192.45;1825225;78;22482;-83
2022/01/07 08:56:08;;;;;;;30.50;19.85;;;;;;;0.58;78.10;101195.07;1801007;78;21069;-83
2022/01/07 08:58:39;;;;;;;31.82;17.57;;;;;;;0.63;78.09;101186.35;1767400;80;21026;-83
2022/01/07 09:01:05;;;;;;;35.33;19.25;;;;;;;0.70;78.08;101190.78;1791495;79;21121;-83
2022/01/07 09:03:36;;;;;;;28.87;14.40;;;;;;;0.77;77.98;101188.25;1768903;79;21090;-83
2022/01/07 09:06:03;;;;;;;31.05;16.17;;;;;;;0.82;77.97;101197.22;1791008;78;21046;-83
2022/01/07 09:08:31;;;;;;;31.93;16.12;;;;;;;0.89;77.95;101194.28;1783224;80;21077;-83
2022/01/07 09:10:57;;;;;;;34.65;15.40;;;;;;;0.93;77.85;101194.11;1782315;80;21142;-83
2022/01/07 09:13:29;;;;;;;39.20;21.05;;;;;;;1.00;77.93;101198.94;1775300;80;21054;-83
2022/01/07 09:15:56;;;;;;;38.17;21.23;;;;;;;1.08;77.88;101190.40;1792491;78;21053;-83
2022/01/07 09:18:22;;;;;;;37.40;20.50;;;;;;;1.15;77.89;101196.12;1792587;80;21745;-83
2022/01/07 09:20:49;;;;;;;31.12;17.57;;;;;;;1.27;77.93;101191.28;1792726;78;21133;-83
2022/01/07 09:23:18;;;;;;;29.37;15.88;;;;;;;1.35;77.84;101191.03;1773626;80;21062;-83
2022/01/07 09:25:48;;;;;;;28.87;17.42;;;;;;;1.42;77.61;101194.03;1792331;78;21054;-83
2022/01/07 09:28:18;;;;;;;28.45;15.65;;;;;;;1.47;77.55;101180.99;1773800;80;21058;-83
2022/01/07 09:30:45;;;;;;;34.13;17.80;;;;;;;1.54;77.54;101184.52;1792154;78;22427;-83
2022/01/07 09:33:14;;;;;;;33.95;17.12;;;;;;;1.61;77.52;101186.70;1774353;80;21556;-83
2022/01/07 09:35:44;;;;;;;34.58;17.37;;;;;;;1.67;77.40;101184.55;1791864;78;21015;-83
2022/01/07 09:38:11;;;;;;;29.92;15.75;;;;;;;1.72;77.35;101179.23;1792591;78;21062;-82
2022/01/07 09:40:38;;;;;;;35.05;19.00;;;;;;;1.80;77.33;101178.86;1791334;79;21114;-83
2022/01/07 09:43:07;;;;;;;34.65;16.65;;;;;;;1.83;77.12;101175.19;1786389;78;21749;-83
2022/01/07 09:45:37;;;;;;;35.43;16.00;;;;;;;1.84;77.02;101179.19;1790532;78;21062;-82
2022/01/07 09:48:03;;;;;;;33.73;17.10;;;;;;;1.85;76.96;101173.18;1786850;78;21058;-83
2022/01/07 09:50:33;;;;;;;30.62;16.67;;;;;;;1.87;76.88;101171.99;1766269;80;21054;-83
2022/01/07 09:53:07;;;;;;;36.80;17.87;;;;;;;1.89;76.79;101172.58;1786660;78;21058;-83
2022/01/07 09:55:34;;;;;;;36.63;18.23;;;;;;;1.94;76.84;101164.71;1787404;79;21852;-83
2022/01/07 09:58:02;;;;;;;40.95;18.87;;;;;;;2.01;76.80;101170.30;1787027;80;21066;-83
2022/01/07 10:00:36;;;;;;;37.65;18.55;;;;;;;2.01;76.66;101166.03;1787044;79;21106;-83
2022/01/07 10:03:09;;;;;;;37.60;17.92;;;;;;;2.03;76.65;101164.42;1787164;78;21113;-83
2022/01/07 10:05:49;;;;;;;35.60;18.37;;;;;;;2.09;76.68;101166.13;1786287;79;21083;-83
2022/01/07 10:08:28;;;;;;;33.20;18.23;;;;;;;2.11;76.66;101167.52;1787318;80;22495;-83
2022/01/07 10:11:18;;;;;;;33.78;18.27;;;;;;;2.16;76.59;101173.93;1785993;79;21296;-83
2022/01/07 10:13:46;;;;;;;35.52;19.87;;;;;;;2.21;76.61;101169.91;1787149;78;21055;-82
2022/01/07 10:16:19;;;;;;;40.85;20.88;;;;;;;2.23;76.47;101173.50;1787327;79;21619;-82
2022/01/07 10:18:47;;;;;;;43.40;21.00;;;;;;;2.23;76.44;101168.72;1786892;79;21059;-82
2022/01/07 10:21:16;;;;;;;43.63;22.70;;;;;;;2.23;76.32;101163.52;1787463;80;21784;-82
2022/01/07 10:23:46;;;;;;;45.05;21.40;;;;;;;2.04;76.21;101131.16;1787115;79;21073;-82
2022/01/07 10:26:18;;;;;;;38.42;21.87;;;;;;;2.18;76.17;101169.73;1787576;78;21078;-83
2022/01/07 10:28:49;;;;;;;39.78;22.17;;;;;;;2.14;76.17;101164.73;1787448;78;21022;-83
2022/01/07 10:31:22;;;;;;;45.52;21.90;;;;;;;2.08;76.07;101159.14;1787377;79;21062;-83
2022/01/07 10:33:53;;;;;;;41.60;20.52;;;;;;;2.06;76.18;101163.31;1768387;80;21070;-83
2022/01/07 10:36:24;;;;;;;42.73;21.57;;;;;;;2.08;76.27;101160.45;1787475;79;21090;-82
2022/01/07 10:39:00;;;;;;;36.70;20.72;;;;;;;2.07;76.29;101150.84;1787610;79;21066;-83
2022/01/07 10:41:27;;;;;;;37.90;20.12;;;;;;;2.05;76.21;101148.55;1783127;79;21105;-83
2022/01/07 10:43:54;;;;;;;43.00;21.05;;;;;;;2.00;76.14;101149.05;1778687;80;21062;-83
2022/01/07 10:46:25;;;;;;;41.37;20.75;;;;;;;1.98;76.16;101150.64;1754838;80;21765;-83
2022/01/07 10:49:06;;;;;;;54.15;26.60;;;;;;;1.91;76.16;101141.53;1779051;80;21102;-83
2022/01/07 10:51:38;;;;;;;57.40;27.37;;;;;;;1.90;76.27;101144.55;1779886;80;21102;-83
2022/01/07 10:54:12;;;;;;;45.85;24.02;;;;;;;1.83;76.28;101124.57;1753881;80;21075;-83
2022/01/07 10:56:45;;;;;;;39.85;22.17;;;;;;;1.89;76.33;101132.34;1787602;80;21081;-83
2022/01/07 10:59:15;;;;;;;37.90;19.65;;;;;;;1.89;76.27;101127.56;1787786;79;21776;-83
2022/01/07 11:01:48;;;;;;;39.40;22.03;;;;;;;1.83;76.19;101129.35;1762097;80;21034;-83
2022/01/07 11:04:19;;;;;;;41.18;21.42;;;;;;;1.78;76.13;101125.55;1788038;80;21078;-82
2022/01/07 11:06:51;;;;;;;45.73;20.97;;;;;;;1.71;76.21;101116.88;1759224;80;21061;-82
2022/01/07 11:09:19;;;;;;;39.18;20.97;;;;;;;1.70;76.27;101121.55;1758912;80;21402;-82
2022/01/07 11:11:54;;;;;;;37.40;18.73;;;;;;;1.68;76.29;101120.15;1787963;80;21708;-82
2022/01/07 11:14:27;;;;;;;37.88;19.00;;;;;;;1.67;76.36;101118.37;1787431;80;21054;-82
2022/01/07 11:16:55;;;;;;;44.95;23.12;;;;;;;1.59;76.33;101105.67;1787617;80;21082;-82
2022/01/07 11:19:35;;;;;;;45.52;20.48;;;;;;;1.62;76.31;101118.86;1787467;80;21113;-82
2022/01/07 11:22:01;;;;;;;38.30;17.15;;;;;;;1.59;76.31;101116.05;1787403;78;21027;-83
2022/01/07 11:24:44;;;;;;;44.30;21.30;;;;;;;1.56;76.37;101108.97;1760134;80;22594;-83
2022/01/07 11:27:21;;;;;;;41.83;20.20;;;;;;;1.61;76.52;101107.97;1787603;80;21655;-83
2022/01/07 11:30:11;;;;;;;44.10;21.33;;;;;;;1.67;76.60;101104.09;1786530;78;21069;-83